Time;durP1;ratioP1;P1;durP2;ratioP2;P2;SDS_P1;SDS_P2;PMS_P1;PMS_P2;Temp;Humidity;BMP_temperature;BMP_pressure;BME280_temperature;BME280_humidity;BME280_pressure;Samples;Min_cycle;Max_cycle;Signal;HPM_P1;HPM_P2
2022/05/29 00:00:52;;;;;;;10.02;2.40;;;15.10;61.80;;;;;;5030074;28;20028;-67
2022/05/29 00:03:18;;;;;;;6.85;2.13;;;15.10;61.90;;;;;;5034652;28;20022;-67
2022/05/29 00:05:46;;;;;;;9.05;2.20;;;15.10;62.00;;;;;;5035143;28;20033;-67
2022/05/29 00:08:17;;;;;;;9.82;2.15;;;15.10;61.10;;;;;;5039027;28;20040;-67
2022/05/29 00:10:43;;;;;;;11.18;2.58;;;15.10;62.00;;;;;;5036871;28;20029;-67
2022/05/29 00:13:11;;;;;;;11.48;2.20;;;15.10;62.00;;;;;;5043493;28;20038;-67
2022/05/29 00:15:38;;;;;;;10.75;2.13;;;15.10;62.10;;;;;;5029855;28;20099;-67
2022/05/29 00:18:06;;;;;;;9.02;2.55;;;15.00;62.10;;;;;;5039866;28;20041;-67
2022/05/29 00:20:32;;;;;;;8.32;2.40;;;15.00;62.30;;;;;;5035552;28;20378;-67
2022/05/29 00:22:58;;;;;;;7.97;2.38;;;15.00;62.40;;;;;;5032891;28;20481;-67
2022/05/29 00:25:24;;;;;;;12.75;2.95;;;15.00;62.40;;;;;;5031669;28;20087;-67
2022/05/29 00:27:50;;;;;;;8.20;2.50;;;15.00;61.50;;;;;;5045360;28;20522;-67
2022/05/29 00:30:16;;;;;;;9.07;2.28;;;15.00;62.40;;;;;;5034516;28;20053;-67
2022/05/29 00:32:41;;;;;;;6.40;2.08;;;15.00;62.40;;;;;;5036360;28;20036;-67
2022/05/29 00:35:07;;;;;;;9.50;2.13;;;15.00;62.50;;;;;;5037071;28;20112;-67
2022/05/29 00:37:39;;;;;;;7.40;2.78;;;15.00;62.80;;;;;;5043812;28;20504;-67
2022/05/29 00:40:23;;;;;;;11.43;2.65;;;14.90;63.00;;;;;;5029141;28;20029;-67
2022/05/29 00:42:48;;;;;;;9.73;2.20;;;14.90;63.10;;;;;;5030569;28;20496;-67
2022/05/29 00:45:19;;;;;;;12.27;2.53;;;14.90;63.50;;;;;;5033904;28;20037;-66
2022/05/29 00:47:44;;;;;;;14.52;2.55;;;14.90;63.50;;;;;;5035304;28;20040;-66
2022/05/29 00:50:10;;;;;;;10.27;2.30;;;14.90;63.50;;;;;;5039592;28;20033;-67
2022/05/29 00:52:36;;;;;;;8.65;2.30;;;14.80;63.50;;;;;;5047722;28;20059;-66
2022/05/29 00:55:10;;;;;;;8.40;2.30;;;14.80;63.80;;;;;;5043083;28;20029;-66
2022/05/29 00:57:39;;;;;;;9.02;2.38;;;14.80;63.80;;;;;;5033797;28;20561;-66
2022/05/29 01:00:17;;;;;;;6.15;2.20;;;14.70;63.90;;;;;;5031185;28;20029;-66
2022/05/29 01:02:44;;;;;;;8.82;2.00;;;14.70;63.90;;;;;;5038656;28;20032;-66
2022/05/29 01:05:13;;;;;;;11.30;2.00;;;14.80;63.90;;;;;;5031870;28;20044;-67
2022/05/29 01:07:41;;;;;;;11.95;2.17;;;14.70;63.90;;;;;;5032208;28;20022;-67
2022/05/29 01:10:08;;;;;;;10.32;2.28;;;14.70;64.10;;;;;;5029264;28;20022;-66
2022/05/29 01:12:54;;;;;;;7.60;2.15;;;14.70;64.00;;;;;;5031609;28;20456;-66
2022/05/29 01:15:41;;;;;;;8.27;2.22;;;14.60;64.10;;;;;;5033422;28;20021;-66
2022/05/29 01:18:26;;;;;;;6.18;2.08;;;14.60;64.30;;;;;;5031069;28;20048;-66
2022/05/29 01:21:21;;;;;;;9.43;1.90;;;14.60;64.40;;;;;;5032118;28;20068;-66
2022/05/29 01:24:04;;;;;;;5.90;1.98;;;14.60;64.50;;;;;;5041302;28;20021;-67
2022/05/29 01:26:57;;;;;;;8.95;1.90;;;14.60;64.40;;;;;;5041832;28;20029;-67
2022/05/29 01:29:56;;;;;;;10.10;2.15;;;14.60;64.30;;;;;;5036572;28;20397;-66
2022/05/29 01:32:45;;;;;;;7.78;1.88;;;14.50;64.40;;;;;;5040359;28;20032;-67
2022/05/29 01:35:16;;;;;;;10.60;2.03;;;14.50;64.60;;;;;;5038035;28;20037;-67
2022/05/29 01:37:48;;;;;;;;;;;14.40;64.70;;;;;;5041755;28;20044;-67
2022/05/29 01:40:29;;;;;;;6.68;1.90;;;14.40;64.90;;;;;;5044367;28;20352;-67
2022/05/29 01:43:02;;;;;;;;;;;14.30;65.10;;;;;;5030579;28;20029;-66
2022/05/29 01:45:55;;;;;;;6.88;2.05;;;14.30;65.00;;;;;;5044823;28;19916;-66
2022/05/29 01:48:33;;;;;;;7.05;1.95;;;14.30;65.20;;;;;;5029598;28;20033;-67
2022/05/29 01:51:07;;;;;;;8.88;2.10;;;14.30;64.90;;;;;;5031872;28;20030;-67
2022/05/29 01:53:40;;;;;;;5.30;1.80;;;14.30;65.00;;;;;;5038709;28;20040;-66
2022/05/29 01:56:24;;;;;;;10.35;2.22;;;14.30;65.00;;;;;;5038459;28;20528;-66
2022/05/29 01:58:58;;;;;;;6.85;2.03;;;14.30;65.00;;;;;;5032183;28;20048;-66
2022/05/29 02:01:30;;;;;;;8.50;1.83;;;14.30;64.70;;;;;;5032501;28;20033;-67
2022/05/29 02:03:57;;;;;;;7.40;1.70;;;14.30;64.60;;;;;;5038839;28;20499;-66
2022/05/29 02:09:40;;;;;;;8.52;2.10;;;14.30;64.50;;;;;;5044604;28;20404;-67
2022/05/29 02:12:10;;;;;;;5.88;2.08;;;14.30;64.40;;;;;;5044091;28;20029;-66
2022/05/29 02:14:41;;;;;;;7.57;1.90;;;14.30;64.40;;;;;;5033134;28;20029;-66
2022/05/29 02:17:16;;;;;;;8.90;2.13;;;14.20;64.50;;;;;;5037677;28;20303;-66
2022/05/29 02:19:51;;;;;;;7.07;2.00;;;14.20;63.70;;;;;;5031659;28;20065;-66
2022/05/29 02:22:28;;;;;;;6.72;1.67;;;14.20;64.60;;;;;;5042326;28;20112;-67
2022/05/29 02:25:09;;;;;;;7.75;1.55;;;14.20;64.50;;;;;;5034359;28;20642;-67
2022/05/29 02:28:01;;;;;;;8.45;2.00;;;14.20;64.60;;;;;;5046913;28;20033;-67
2022/05/29 02:30:38;;;;;;;6.88;1.92;;;14.20;64.60;;;;;;5047743;28;20087;-66
2022/05/29 02:33:17;;;;;;;7.82;1.85;;;14.10;64.50;;;;;;5034823;28;20056;-67
2022/05/29 02:36:19;;;;;;;9.18;1.85;;;14.10;64.50;;;;;;5040777;28;20087;-67
2022/05/29 02:38:58;;;;;;;5.70;1.90;;;14.10;64.50;;;;;;5036233;28;20056;-67
2022/05/29 02:41:48;;;;;;;9.30;2.15;;;14.10;64.60;;;;;;5037820;28;20026;-66
2022/05/29 02:44:43;;;;;;;7.25;2.08;;;14.00;64.80;;;;;;5033152;28;20037;-66
2022/05/29 02:47:18;;;;;;;7.70;1.92;;;14.00;65.00;;;;;;5034989;28;20028;-67
2022/05/29 02:49:53;;;;;;;6.32;1.90;;;14.00;65.00;;;;;;5033255;28;20120;-67
2022/05/29 02:52:19;;;;;;;6.43;1.70;;;14.00;65.00;;;;;;5042974;28;20029;-67
2022/05/29 02:54:45;;;;;;;6.45;1.58;;;13.90;64.90;;;;;;5048427;28;20047;-66
2022/05/29 02:57:10;;;;;;;4.75;1.67;;;14.00;64.80;;;;;;5038304;28;20577;-67
2022/05/29 02:59:45;;;;;;;7.40;1.70;;;13.90;64.70;;;;;;5037192;28;20034;-66
2022/05/29 03:02:38;;;;;;;4.90;1.80;;;13.80;64.50;;;;;;5033575;28;20026;-67
2022/05/29 03:05:25;;;;;;;6.00;1.70;;;13.80;64.60;;;;;;5038106;28;20040;-67
2022/05/29 03:07:54;;;;;;;7.03;1.90;;;13.70;65.00;;;;;;5043329;28;20052;-66
2022/05/29 03:10:34;;;;;;;7.85;1.92;;;13.70;65.20;;;;;;5033514;28;20044;-66
2022/05/29 03:13:02;;;;;;;6.35;1.95;;;13.70;65.50;;;;;;5031220;28;20029;-67
2022/05/29 03:15:49;;;;;;;5.38;1.70;;;13.70;65.70;;;;;;5046868;28;20511;-67
2022/05/29 03:18:39;;;;;;;6.03;1.80;;;13.70;65.60;;;;;;5035366;28;20096;-67
2022/05/29 03:21:42;;;;;;;7.28;2.00;;;13.70;65.70;;;;;;5033143;28;20033;-66
2022/05/29 03:24:30;;;;;;;7.30;1.95;;;13.60;65.70;;;;;;5046819;28;20041;-66
2022/05/29 03:27:12;;;;;;;4.50;1.85;;;13.60;65.90;;;;;;5035935;28;20071;-66
2022/05/29 03:29:40;;;;;;;6.80;2.10;;;13.60;66.20;;;;;;5035253;28;20117;-67
2022/05/29 03:32:07;;;;;;;6.47;1.70;;;13.50;66.20;;;;;;5036874;28;20433;-67
2022/05/29 03:34:33;;;;;;;10.40;2.00;;;13.50;66.30;;;;;;5035331;28;20049;-66
2022/05/29 03:36:59;;;;;;;4.82;1.70;;;13.50;66.50;;;;;;5031447;28;20044;-66
2022/05/29 03:39:25;;;;;;;5.10;1.70;;;13.50;66.70;;;;;;5032895;28;20068;-66
2022/05/29 03:41:52;;;;;;;5.90;1.80;;;13.40;66.40;;;;;;5034871;28;20022;-66
2022/05/29 03:44:21;;;;;;;6.22;1.65;;;13.40;66.10;;;;;;5039421;28;20037;-66
2022/05/29 03:46:46;;;;;;;4.80;1.50;;;13.40;65.90;;;;;;5045135;28;20040;-67
2022/05/29 03:49:14;;;;;;;4.50;1.70;;;13.30;65.90;;;;;;5035574;28;20103;-66
2022/05/29 03:51:40;;;;;;;5.78;1.70;;;13.30;65.90;;;;;;5030826;28;20036;-66
2022/05/29 03:54:07;;;;;;;5.03;1.65;;;13.20;65.70;;;;;;5034799;28;20505;-67
2022/05/29 03:56:33;;;;;;;6.07;1.60;;;13.20;65.50;;;;;;5034561;28;20042;-66
2022/05/29 03:58:59;;;;;;;4.55;1.60;;;13.10;64.60;;;;;;5035477;28;20067;-66
2022/05/29 04:01:25;;;;;;;4.38;1.50;;;13.10;65.40;;;;;;5034390;28;20477;-66
2022/05/29 04:03:54;;;;;;;6.57;1.70;;;13.00;65.10;;;;;;5037225;28;20448;-67
2022/05/29 04:06:21;;;;;;;8.45;1.73;;;13.00;66.00;;;;;;5034523;28;20021;-66
2022/05/29 04:14:16;;;;;;;6.97;1.98;;;13.00;66.50;;;;;;5032281;28;20040;-66
2022/05/29 04:16:42;;;;;;;5.97;1.50;;;13.00;66.60;;;;;;5032958;28;20036;-66
2022/05/29 04:19:08;;;;;;;5.10;1.63;;;12.90;66.40;;;;;;5035349;28;20029;-67
2022/05/29 04:21:34;;;;;;;8.45;1.63;;;12.90;66.40;;;;;;5031950;28;20028;-66
2022/05/29 04:24:00;;;;;;;5.97;1.60;;;12.90;66.40;;;;;;5033771;28;20511;-66
2022/05/29 04:26:26;;;;;;;6.97;1.63;;;12.90;66.40;;;;;;5038031;28;20021;-67
2022/05/29 04:28:51;;;;;;;5.10;1.65;;;12.90;66.30;;;;;;5047372;28;20480;-66
2022/05/29 04:31:17;;;;;;;6.10;1.65;;;12.80;66.40;;;;;;5044142;28;20659;-66
2022/05/29 04:33:43;;;;;;;4.85;1.50;;;12.80;66.50;;;;;;5030602;28;20037;-67
2022/05/29 04:36:08;;;;;;;5.60;1.60;;;12.80;66.30;;;;;;5031829;28;20091;-66
2022/05/29 04:38:34;;;;;;;4.32;1.50;;;12.80;66.30;;;;;;5033504;28;20504;-66
2022/05/29 04:41:06;;;;;;;4.57;1.60;;;12.80;66.30;;;;;;5031618;28;20080;-67
2022/05/29 04:43:32;;;;;;;4.70;1.80;;;12.80;66.10;;;;;;5031213;28;20087;-67
2022/05/29 04:45:57;;;;;;;5.88;1.52;;;12.80;66.00;;;;;;5039208;28;20021;-67
2022/05/29 04:48:23;;;;;;;7.35;1.58;;;12.90;65.80;;;;;;5046957;28;20033;-67
2022/05/29 04:50:55;;;;;;;6.50;1.55;;;12.80;65.70;;;;;;5037523;28;20029;-67
2022/05/29 04:53:20;;;;;;;9.90;1.60;;;12.90;65.70;;;;;;5037725;28;20038;-66
2022/05/29 04:55:46;;;;;;;4.22;1.38;;;12.90;65.70;;;;;;5032272;28;20045;-66
2022/05/29 04:58:11;;;;;;;8.20;1.50;;;12.90;65.50;;;;;;5029443;28;20080;-66
2022/05/29 05:00:37;;;;;;;7.55;1.75;;;12.90;65.40;;;;;;5040580;28;20025;-66
2022/05/29 05:03:03;;;;;;;4.88;1.33;;;12.90;65.30;;;;;;5033391;28;20804;-67
2022/05/29 05:05:30;;;;;;;4.22;1.33;;;12.90;65.10;;;;;;5032152;28;20116;-66
2022/05/29 05:07:55;;;;;;;5.15;1.52;;;12.90;64.80;;;;;;5036072;28;20120;-66
2022/05/29 05:10:21;;;;;;;9.00;1.83;;;12.90;64.90;;;;;;5033566;28;20583;-67
2022/05/29 05:12:47;;;;;;;5.13;1.50;;;13.00;64.80;;;;;;5030898;28;20109;-67
2022/05/29 05:15:15;;;;;;;6.80;1.58;;;13.00;64.60;;;;;;5031568;28;20496;-66
2022/05/29 05:17:42;;;;;;;5.57;1.52;;;13.10;64.50;;;;;;5037161;28;20049;-67
2022/05/29 05:20:08;;;;;;;5.45;1.40;;;13.10;64.30;;;;;;5038954;28;20018;-67
2022/05/29 05:22:34;;;;;;;5.05;1.50;;;13.10;64.20;;;;;;5032119;28;20029;-66
2022/05/29 05:25:01;;;;;;;4.85;1.30;;;13.10;64.10;;;;;;5029212;28;20094;-67
2022/05/29 05:27:28;;;;;;;4.72;1.40;;;13.20;63.90;;;;;;5033710;28;20055;-67
2022/05/29 05:29:53;;;;;;;5.18;1.25;;;13.20;63.60;;;;;;5037273;28;20428;-67
2022/05/29 05:32:19;;;;;;;3.80;1.50;;;13.30;63.40;;;;;;5036862;28;20029;-67
2022/05/29 05:34:45;;;;;;;4.65;1.30;;;13.30;63.30;;;;;;5033180;28;20033;-67
2022/05/29 05:37:11;;;;;;;4.78;1.38;;;13.40;63.00;;;;;;5046336;28;20041;-67
2022/05/29 05:39:37;;;;;;;4.88;1.40;;;13.40;62.60;;;;;;5028267;28;20032;-67
2022/05/29 05:42:05;;;;;;;4.07;1.40;;;13.50;62.10;;;;;;5046739;28;20316;-67
2022/05/29 05:44:31;;;;;;;5.93;1.35;;;13.60;61.30;;;;;;5035989;28;20032;-66
2022/05/29 05:46:56;;;;;;;3.72;1.27;;;13.60;61.30;;;;;;5032180;28;20030;-67
2022/05/29 05:49:23;;;;;;;6.07;1.20;;;13.80;61.00;;;;;;5030306;28;20033;-66
2022/05/29 05:51:50;;;;;;;4.07;1.17;;;13.90;59.80;;;;;;5029506;28;20036;-67
2022/05/29 05:54:17;;;;;;;5.38;1.48;;;14.00;59.60;;;;;;5033268;28;20461;-67
2022/05/29 05:56:45;;;;;;;3.55;1.10;;;14.10;58.20;;;;;;5036640;28;20037;-67
2022/05/29 05:59:11;;;;;;;5.20;1.30;;;14.20;57.40;;;;;;5047529;28;20061;-67
2022/05/29 06:01:38;;;;;;;4.60;1.13;;;14.30;56.80;;;;;;5046611;28;20025;-67
2022/05/29 06:04:04;;;;;;;4.55;1.10;;;14.40;55.90;;;;;;5035476;28;20055;-67
2022/05/29 06:06:30;;;;;;;4.25;1.05;;;14.50;55.90;;;;;;5032528;28;20388;-67
2022/05/29 06:08:57;;;;;;;4.05;1.20;;;14.60;56.00;;;;;;5039199;28;20023;-67
2022/05/29 06:11:24;;;;;;;7.57;1.10;;;14.70;55.40;;;;;;5039051;28;20088;-67
2022/05/29 06:13:50;;;;;;;6.07;1.15;;;14.70;54.40;;;;;;5034359;28;20030;-67
2022/05/29 06:16:15;;;;;;;5.82;1.10;;;14.80;53.90;;;;;;5035125;28;20029;-67
2022/05/29 06:18:41;;;;;;;3.35;1.08;;;14.90;53.30;;;;;;5032553;28;20540;-67
2022/05/29 06:21:07;;;;;;;5.18;1.13;;;15.00;53.70;;;;;;5047090;28;20446;-67
2022/05/29 06:23:34;;;;;;;3.85;1.10;;;15.20;53.40;;;;;;5038112;28;20048;-67
2022/05/29 06:26:02;;;;;;;4.20;1.05;;;15.30;52.80;;;;;;5034626;28;20037;-67
2022/05/29 06:28:28;;;;;;;5.82;1.35;;;15.50;52.50;;;;;;5034603;28;20476;-67
2022/05/29 06:30:54;;;;;;;3.67;0.98;;;15.70;51.50;;;;;;5046670;28;20032;-67
2022/05/29 06:33:19;;;;;;;4.47;1.30;;;15.90;51.10;;;;;;5036374;28;20237;-67
2022/05/29 06:35:45;;;;;;;3.72;0.90;;;16.20;50.40;;;;;;5039270;28;20083;-67
2022/05/29 06:38:11;;;;;;;4.63;1.00;;;16.40;48.60;;;;;;5041272;28;20045;-67
2022/05/29 06:40:42;;;;;;;3.83;1.08;;;16.60;47.50;;;;;;5046822;28;20025;-67
2022/05/29 06:43:09;;;;;;;4.82;1.00;;;16.90;46.70;;;;;;5031381;28;20108;-67
2022/05/29 06:45:35;;;;;;;7.55;1.10;;;17.50;45.70;;;;;;5034523;28;20033;-67
2022/05/29 06:48:01;;;;;;;2.88;1.00;;;18.40;42.70;;;;;;5034571;28;20034;-67
2022/05/29 06:50:27;;;;;;;6.78;1.20;;;19.40;40.30;;;;;;5038426;28;20025;-67
2022/05/29 06:52:53;;;;;;;2.95;1.08;;;20.50;37.30;;;;;;5045757;28;20036;-67
2022/05/29 06:55:21;;;;;;;4.40;1.33;;;21.50;34.80;;;;;;5045983;28;20393;-67
2022/05/29 06:57:48;;;;;;;4.45;1.02;;;22.20;33.00;;;;;;5047471;28;20049;-67
2022/05/29 07:08:35;;;;;;;4.90;0.93;;;24.30;29.40;;;;;;5038039;28;20045;-67
2022/05/29 07:11:16;;;;;;;3.53;0.90;;;24.80;28.40;;;;;;5035244;28;20025;-68
2022/05/29 07:13:42;;;;;;;5.60;0.90;;;25.00;26.90;;;;;;5034770;28;20017;-68
2022/05/29 07:16:08;;;;;;;4.55;1.02;;;25.30;26.40;;;;;;5030674;28;20083;-68
2022/05/29 07:18:34;;;;;;;6.28;1.27;;;25.40;25.80;;;;;;5034257;28;20543;-67
2022/05/29 07:21:02;;;;;;;5.03;1.10;;;25.70;25.40;;;;;;5040822;28;20033;-68
2022/05/29 07:23:28;;;;;;;3.35;1.08;;;25.80;25.40;;;;;;5038640;28;20132;-67
2022/05/29 07:25:55;;;;;;;3.60;0.70;;;;;;;;;;5042715;28;20037;-67
2022/05/29 07:28:22;;;;;;;3.15;0.90;;;25.60;24.50;;;;;;5034010;28;20083;-67
2022/05/29 07:30:48;;;;;;;3.08;0.88;;;25.10;25.30;;;;;;5032672;28;20131;-67
2022/05/29 07:33:14;;;;;;;4.55;1.00;;;24.40;25.40;;;;;;5035710;28;20481;-67
2022/05/29 07:35:41;;;;;;;3.67;0.90;;;23.90;26.50;;;;;;5035991;28;20032;-67
2022/05/29 07:38:07;;;;;;;4.13;0.93;;;23.20;27.80;;;;;;5045610;28;20455;-67
2022/05/29 07:40:32;;;;;;;6.53;1.40;;;22.60;29.40;;;;;;5045161;28;20440;-67
2022/05/29 07:45:44;;;;;;;5.07;1.00;;;21.80;31.00;;;;;;5045566;28;20558;-67
2022/05/29 07:48:09;;;;;;;3.80;0.90;;;21.70;29.90;;;;;;5034631;28;20021;-67
2022/05/29 07:50:35;;;;;;;4.88;1.00;;;21.50;30.50;;;;;;5036212;28;20035;-67
2022/05/29 07:53:02;;;;;;;2.65;0.82;;;21.40;31.60;;;;;;5040891;28;20026;-67
2022/05/29 07:55:28;;;;;;;2.75;0.70;;;21.40;31.60;;;;;;5042658;28;20021;-66
2022/05/29 07:57:53;;;;;;;3.70;0.82;;;21.40;31.00;;;;;;5029758;28;20052;-67
2022/05/29 08:00:21;;;;;;;4.57;0.88;;;21.30;30.80;;;;;;5041184;28;20094;-67
2022/05/29 08:02:47;;;;;;;3.92;0.80;;;21.30;30.50;;;;;;5040269;28;20498;-67
2022/05/29 08:05:15;;;;;;;2.63;0.60;;;21.20;30.40;;;;;;5039015;28;20030;-67
2022/05/29 08:07:41;;;;;;;2.80;0.80;;;21.20;30.00;;;;;;5041658;28;20136;-67
2022/05/29 08:10:08;;;;;;;3.85;0.80;;;21.10;30.70;;;;;;5029416;28;20033;-67
2022/05/29 08:12:34;;;;;;;6.07;1.00;;;21.10;31.10;;;;;;5035744;28;20048;-67
2022/05/29 08:15:00;;;;;;;4.90;0.82;;;21.20;31.80;;;;;;5032680;28;20026;-67
2022/05/29 08:17:25;;;;;;;2.08;0.70;;;21.30;30.80;;;;;;5032417;28;20092;-67
2022/05/29 08:19:51;;;;;;;3.03;0.90;;;21.40;30.40;;;;;;5032221;28;20096;-67
2022/05/29 08:22:17;;;;;;;2.72;0.80;;;21.40;30.80;;;;;;5039335;28;20025;-66
2022/05/29 08:33:10;;;;;;;4.55;0.90;;;21.60;30.00;;;;;;5033888;28;20607;-67
2022/05/29 08:35:37;;;;;;;6.22;0.70;;;21.60;29.70;;;;;;5032233;28;20025;-67
2022/05/29 08:38:04;;;;;;;2.85;0.80;;;21.60;30.70;;;;;;5039661;28;20039;-67
2022/05/29 08:40:31;;;;;;;3.90;0.85;;;21.70;31.60;;;;;;5032718;28;20029;-67
2022/05/29 08:42:57;;;;;;;4.93;0.70;;;21.80;31.90;;;;;;5028855;28;20503;-67
2022/05/29 08:45:23;;;;;;;2.78;0.70;;;21.90;30.20;;;;;;5033905;28;20021;-67
2022/05/29 08:47:50;;;;;;;2.45;0.80;;;22.00;30.80;;;;;;5032668;28;20378;-67
2022/05/29 08:50:21;;;;;;;2.35;0.80;;;22.10;30.20;;;;;;5032790;28;20033;-67
2022/05/29 08:52:47;;;;;;;4.25;0.80;;;22.30;30.10;;;;;;5032695;28;20029;-67
2022/05/29 08:55:30;;;;;;;3.08;0.80;;;22.50;29.30;;;;;;5032032;28;20768;-67
2022/05/29 08:58:18;;;;;;;3.53;0.60;;;22.80;29.30;;;;;;5031861;28;20140;-67
2022/05/29 09:01:06;;;;;;;3.58;0.88;;;23.00;29.10;;;;;;5044235;28;20032;-67
2022/05/29 09:03:47;;;;;;;3.80;0.90;;;23.20;28.50;;;;;;5045425;28;20021;-67
2022/05/29 09:06:22;;;;;;;5.15;0.98;;;23.40;28.60;;;;;;5033474;28;20033;-67
2022/05/29 09:09:06;;;;;;;3.40;0.77;;;23.60;28.60;;;;;;5032335;28;20084;-67
2022/05/29 09:11:52;;;;;;;3.45;0.75;;;23.80;28.20;;;;;;5031171;28;20037;-67
2022/05/29 09:14:37;;;;;;;3.47;0.80;;;24.10;27.90;;;;;;5032578;28;20029;-67
2022/05/29 09:17:06;;;;;;;4.63;0.90;;;24.10;27.60;;;;;;5032249;28;20021;-67
2022/05/29 09:19:47;;;;;;;4.70;0.80;;;24.30;27.60;;;;;;5031783;28;20045;-68
2022/05/29 09:22:20;;;;;;;3.00;0.70;;;24.40;27.20;;;;;;5043101;28;20036;-67
2022/05/29 09:25:08;;;;;;;2.70;0.70;;;24.80;26.40;;;;;;5035089;28;20025;-67
2022/05/29 09:27:36;;;;;;;3.08;0.80;;;24.90;27.10;;;;;;5059537;28;20412;-67
2022/05/29 09:30:03;;;;;;;5.18;1.00;;;25.10;26.30;;;;;;5035667;28;20033;-68
2022/05/29 09:32:32;;;;;;;2.33;0.80;;;25.10;27.00;;;;;;5040301;28;20033;-67
2022/05/29 09:35:04;;;;;;;4.45;0.93;;;24.70;27.50;;;;;;5036669;28;20024;-67
2022/05/29 09:37:57;;;;;;;6.57;0.90;;;25.00;27.50;;;;;;5035460;28;20520;-67
2022/05/29 09:40:27;;;;;;;5.20;0.90;;;24.50;27.90;;;;;;5035115;28;20033;-67
2022/05/29 09:42:54;;;;;;;4.35;1.10;;;24.40;27.90;;;;;;5033884;28;20041;-67
2022/05/29 09:45:22;;;;;;;8.98;0.90;;;24.00;28.10;;;;;;5047471;28;20668;-67
2022/05/29 09:50:51;;;;;;;4.15;0.95;;;24.10;27.90;;;;;;5039277;28;20040;-67
2022/05/29 09:53:43;;;;;;;4.88;1.00;;;24.90;27.60;;;;;;5035937;28;20037;-67
2022/05/29 09:56:10;;;;;;;4.30;0.90;;;25.60;25.30;;;;;;5037598;28;20048;-68
2022/05/29 09:58:45;;;;;;;3.28;0.90;;;25.70;25.90;;;;;;5047265;28;20041;-68
2022/05/29 10:01:11;;;;;;;4.40;1.00;;;26.60;25.70;;;;;;5032357;28;20036;-67
2022/05/29 10:04:04;;;;;;;5.43;0.98;;;27.30;24.80;;;;;;5035401;28;20079;-67
2022/05/29 10:06:41;;;;;;;2.60;0.77;;;27.00;25.10;;;;;;5047320;28;20120;-67
2022/05/29 10:09:09;;;;;;;3.70;0.90;;;27.60;24.90;;;;;;5034705;28;20032;-67
2022/05/29 10:11:35;;;;;;;4.40;0.82;;;27.90;24.80;;;;;;5033998;28;20025;-67
2022/05/29 10:14:21;;;;;;;5.63;1.00;;;27.60;24.10;;;;;;5041281;28;20044;-68
2022/05/29 10:16:49;;;;;;;7.93;0.90;;;27.40;24.00;;;;;;5035556;28;20030;-67
2022/05/29 10:19:41;;;;;;;6.53;1.10;;;27.40;23.50;;;;;;5032545;28;20037;-67
2022/05/29 10:22:22;;;;;;;4.82;1.10;;;27.10;23.80;;;;;;5048796;28;20025;-67
2022/05/29 10:24:48;;;;;;;4.10;0.77;;;26.70;24.30;;;;;;5048908;28;20106;-67
2022/05/29 10:27:28;;;;;;;3.78;0.90;;;27.90;23.60;;;;;;5043179;28;20061;-67
2022/05/29 10:29:58;;;;;;;4.00;1.00;;;28.40;22.80;;;;;;5035228;28;20044;-67
2022/05/29 10:32:27;;;;;;;3.35;1.10;;;29.00;22.40;;;;;;5039709;28;20493;-67
2022/05/29 10:35:26;;;;;;;4.47;0.90;;;28.90;22.60;;;;;;5038510;28;20436;-67
2022/05/29 10:37:53;;;;;;;4.20;0.90;;;28.50;22.80;;;;;;5034970;28;20129;-67
2022/05/29 10:40:28;;;;;;;4.43;1.10;;;27.10;24.30;;;;;;5033762;28;20056;-67
2022/05/29 10:43:03;;;;;;;4.00;0.98;;;28.10;22.90;;;;;;5030752;28;20179;-67
2022/05/29 10:45:40;;;;;;;2.25;0.90;;;27.00;24.50;;;;;;5047414;28;20029;-67
2022/05/29 10:48:21;;;;;;;4.15;1.00;;;26.90;24.60;;;;;;5039374;28;20056;-67
2022/05/29 10:51:05;;;;;;;2.38;0.70;;;28.20;23.70;;;;;;5036609;28;20080;-67
2022/05/29 10:53:48;;;;;;;4.57;0.82;;;27.00;23.70;;;;;;5035218;28;20029;-67
2022/05/29 10:56:23;;;;;;;3.80;0.90;;;26.80;24.40;;;;;;5041114;28;20118;-67
2022/05/29 10:59:07;;;;;;;4.45;0.90;;;27.90;23.70;;;;;;5043438;28;20065;-67
2022/05/29 11:05:11;;;;;;;4.85;0.90;;;27.80;24.00;;;;;;5034770;28;20107;-67
2022/05/29 11:07:52;;;;;;;2.85;0.77;;;30.50;21.10;;;;;;5041683;28;20468;-68
2022/05/29 11:10:21;;;;;;;2.78;0.80;;;32.10;19.70;;;;;;5034411;28;20388;-68
2022/05/29 11:13:02;;;;;;;4.07;1.00;;;33.10;19.00;;;;;;5031214;28;20113;-67
2022/05/29 11:15:36;;;;;;;4.53;0.90;;;33.90;18.00;;;;;;5031616;28;20552;-67
2022/05/29 11:18:05;;;;;;;4.03;0.80;;;34.90;16.50;;;;;;5033702;28;20041;-67
2022/05/29 11:21:04;;;;;;;3.92;0.80;;;34.90;17.00;;;;;;5034477;28;20095;-67
2022/05/29 11:23:43;;;;;;;1.83;0.70;;;34.40;16.80;;;;;;5034687;28;20038;-67
2022/05/29 11:26:24;;;;;;;2.35;0.70;;;31.60;19.50;;;;;;5033639;28;20049;-67
2022/05/29 11:28:56;;;;;;;;;;;30.30;21.10;;;;;;5031037;28;20082;-66
2022/05/29 11:31:38;;;;;;;3.90;0.90;;;31.40;20.20;;;;;;5032105;28;19924;-67
2022/05/29 11:34:19;;;;;;;2.42;0.63;;;31.60;19.70;;;;;;5042213;28;20121;-67
2022/05/29 11:36:47;;;;;;;2.63;0.70;;;33.80;17.10;;;;;;5047062;28;20396;-67
2022/05/29 11:39:32;;;;;;;4.45;0.73;;;33.80;17.70;;;;;;5034548;28;20041;-67
2022/05/29 11:42:09;;;;;;;3.88;0.70;;;34.50;17.00;;;;;;5047547;28;20029;-67
2022/05/29 11:44:51;;;;;;;3.85;0.70;;;33.70;17.70;;;;;;5036099;28;20036;-67
2022/05/29 11:53:59;;;;;;;4.72;0.63;;;28.50;22.30;;;;;;5033656;28;20064;-67
2022/05/29 11:57:05;;;;;;;4.20;0.80;;;30.80;20.30;;;;;;5032762;28;20041;-67
2022/05/29 11:59:48;;;;;;;3.47;0.70;;;30.60;20.60;;;;;;5032541;28;20045;-67
2022/05/29 12:02:46;;;;;;;2.20;0.63;;;32.50;18.40;;;;;;5033395;28;20033;-67
2022/05/29 12:05:40;;;;;;;2.45;0.80;;;33.50;17.90;;;;;;5033203;28;20041;-67
2022/05/29 12:08:27;;;;;;;3.70;0.70;;;32.90;18.20;;;;;;5034657;28;20033;-67
2022/05/29 12:10:56;;;;;;;4.63;0.90;;;32.90;17.90;;;;;;5045739;28;20029;-67
2022/05/29 12:13:27;;;;;;;2.88;0.60;;;32.60;18.50;;;;;;5045545;28;20033;-67
2022/05/29 12:16:05;;;;;;;6.13;1.10;;;32.60;18.10;;;;;;5045773;28;20036;-67
2022/05/29 12:18:48;;;;;;;4.70;0.80;;;33.80;17.20;;;;;;5045905;28;20095;-67
2022/05/29 12:21:26;;;;;;;3.25;0.70;;;34.70;16.30;;;;;;5059797;28;20029;-67
2022/05/29 12:23:54;;;;;;;3.35;0.68;;;35.20;16.30;;;;;;5033105;28;20489;-67
2022/05/29 12:26:55;;;;;;;3.47;0.70;;;35.70;16.00;;;;;;5032892;28;20025;-67
2022/05/29 12:29:36;;;;;;;4.00;0.85;;;35.70;15.70;;;;;;5032039;28;20090;-67
2022/05/29 12:32:09;;;;;;;3.72;0.80;;;36.00;15.30;;;;;;5039394;28;20028;-67
2022/05/29 12:34:44;;;;;;;6.50;0.90;;;34.90;16.10;;;;;;5046547;28;20440;-67
2022/05/29 12:37:19;;;;;;;3.63;0.80;;;33.30;17.40;;;;;;5032391;28;20025;-67
2022/05/29 12:40:18;;;;;;;2.17;0.70;;;32.10;18.70;;;;;;5045110;28;20028;-67
2022/05/29 12:42:49;;;;;;;3.08;0.80;;;33.10;17.70;;;;;;5045062;28;20075;-67
2022/05/29 12:45:39;;;;;;;3.90;0.90;;;31.90;18.80;;;;;;5033709;28;20036;-66
2022/05/29 12:48:16;;;;;;;4.60;1.20;;;31.20;19.30;;;;;;5031530;28;20034;-66
2022/05/29 12:50:57;;;;;;;3.40;0.85;;;32.70;17.90;;;;;;5032376;28;20120;-66
2022/05/29 12:53:28;;;;;;;3.78;0.80;;;32.40;18.70;;;;;;5032209;28;20037;-66
2022/05/29 12:56:39;;;;;;;4.60;0.80;;;31.60;18.90;;;;;;5035620;28;20063;-66
2022/05/29 12:59:23;;;;;;;4.05;0.77;;;32.90;18.10;;;;;;5033942;28;20127;-66
2022/05/29 13:02:00;;;;;;;5.70;0.85;;;33.20;17.80;;;;;;5035473;28;20069;-66
2022/05/29 13:04:47;;;;;;;3.95;0.75;;;31.90;18.70;;;;;;5044523;28;20049;-66
2022/05/29 13:07:19;;;;;;;3.63;0.60;;;32.40;18.10;;;;;;5042152;28;20029;-66
2022/05/29 13:10:05;;;;;;;3.22;0.80;;;33.00;17.40;;;;;;5044613;28;20033;-66
2022/05/29 13:12:53;;;;;;;4.75;0.77;;;32.90;17.70;;;;;;5046825;28;20045;-66
2022/05/29 13:15:36;;;;;;;3.33;0.80;;;31.60;18.80;;;;;;5027826;28;20061;-66
2022/05/29 13:21:18;;;;;;;4.78;0.70;;;29.60;19.80;;;;;;5041427;28;20033;-66
2022/05/29 13:23:48;;;;;;;4.97;0.75;;;28.70;21.30;;;;;;5035030;28;20107;-66
2022/05/29 13:26:21;;;;;;;5.43;0.80;;;28.60;22.10;;;;;;5036393;28;20033;-66
